Time,TemperatureF,DewpointF,PressureIn,WindDirection,WindDirectionDegrees,WindSpeedMPH,WindSpeedGustMPH,Humidity,HourlyPrecipIn,Conditions,Clouds,dailyrainin,SoftwareType,DateUTC
2013-02-13 00:01:00,25.9,9.4,29.62,WSW,250,7.2,7.2,49,0.00,,,0.00,VWS V14.01,2013-02-13 06:01:00,
2013-02-13 00:06:00,25.9,9.4,29.62,WSW,246,5.4,6.3,49,0.00,,,0.00,VWS V14.01,2013-02-13 06:06:00,
2013-02-13 00:11:00,25.9,9.4,29.62,WSW,238,5.4,5.4,49,0.00,,,0.00,VWS V14.01,2013-02-13 06:11:00,
2013-02-13 00:16:00,25.9,9.4,29.62,SW,216,5.8,5.8,49,0.00,,,0.00,VWS V14.01,2013-02-13 06:16:00,
2013-02-13 00:21:00,26.1,9.5,29.62,WSW,240,7.6,7.6,49,0.00,,,0.00,VWS V14.01,2013-02-13 06:21:00,
2013-02-13 00:26:00,26.1,9.5,29.62,SW,234,8.3,8.3,49,0.00,,,0.00,VWS V14.01,2013-02-13 06:26:00,
2013-02-13 00:31:00,26.2,9.7,29.62,SW,226,8.7,8.7,49,0.00,,,0.00,VWS V14.01,2013-02-13 06:31:00,
2013-02-13 00:36:00,26.2,9.7,29.62,SW,214,6.3,6.3,49,0.00,,,0.00,VWS V14.01,2013-02-13 06:36:00,
2013-02-13 00:41:00,26.2,9.7,29.62,WSW,238,5.4,5.4,49,0.00,,,0.00,VWS V14.01,2013-02-13 06:41:00,
2013-02-13 00:46:00,26.2,9.7,29.62,WSW,240,4.0,4.0,49,0.00,,,0.00,VWS V14.01,2013-02-13 06:46:00,
2013-02-13 00:51:00,26.2,9.7,29.62,WSW,248,5.8,5.8,49,0.00,,,0.00,VWS V14.01,2013-02-13 06:51:00,
2013-02-13 00:56:00,26.2,9.7,29.62,West,261,5.8,5.8,49,0.00,,,0.00,VWS V14.01,2013-02-13 06:56:00,
2013-02-13 01:01:00,26.2,9.7,29.62,West,261,5.8,5.8,49,0.00,,,0.00,VWS V14.01,2013-02-13 07:01:00,
2013-02-13 01:06:00,26.2,9.7,29.62,SW,229,8.7,9.2,49,0.00,,,0.00,VWS V14.01,2013-02-13 07:06:00,
2013-02-13 01:11:00,26.2,9.7,29.59,WSW,254,5.8,5.8,49,0.00,,,0.00,VWS V14.01,2013-02-13 07:11:00,
2013-02-13 01:16:00,26.2,9.7,29.59,SW,226,5.4,5.4,49,0.00,,,0.00,VWS V14.01,2013-02-13 07:16:00,
2013-02-13 01:21:00,26.2,9.7,29.59,SW,233,4.0,5.4,49,0.00,,,0.00,VWS V14.01,2013-02-13 07:21:00,
2013-02-13 01:26:00,26.2,9.7,29.59,SW,232,7.2,7.2,49,0.00,,,0.00,VWS V14.01,2013-02-13 07:26:00,
2013-02-13 01:31:00,26.2,9.7,29.59,WSW,250,8.1,8.1,49,0.00,,,0.00,VWS V14.01,2013-02-13 07:31:00,
2013-02-13 01:36:00,26.1,10.0,29.59,SW,225,5.8,5.8,50,0.00,,,0.00,VWS V14.01,2013-02-13 07:36:00,
2013-02-13 01:41:00,26.1,9.5,29.59,WSW,237,3.6,3.6,49,0.00,,,0.00,VWS V14.01,2013-02-13 07:41:00,
2013-02-13 01:46:00,26.1,10.0,29.59,SSW,213,5.4,5.4,50,0.00,,,0.00,VWS V14.01,2013-02-13 07:46:00,
2013-02-13 01:51:00,25.9,9.8,29.59,SW,219,2.7,3.1,50,0.00,,,0.00,VWS V14.01,2013-02-13 07:51:00,
2013-02-13 01:56:00,25.9,10.3,29.59,SW,219,2.7,2.7,51,0.00,,,0.00,VWS V14.01,2013-02-13 07:56:00,
2013-02-13 02:01:00,25.9,10.3,29.59,SW,214,3.6,3.6,51,0.00,,,0.00,VWS V14.01,2013-02-13 08:01:00,
2013-02-13 02:07:00,25.7,10.1,29.59,SW,225,5.8,5.8,51,0.00,,,0.00,VWS V14.01,2013-02-13 08:07:00,
2013-02-13 02:12:00,25.7,10.1,29.59,WSW,237,3.1,5.8,51,0.00,,,0.00,VWS V14.01,2013-02-13 08:12:00,
2013-02-13 02:17:00,25.7,10.1,29.59,SW,226,4.0,4.0,51,0.00,,,0.00,VWS V14.01,2013-02-13 08:17:00,
2013-02-13 02:22:00,25.5,10.4,29.59,SW,233,5.8,5.8,52,0.00,,,0.00,VWS V14.01,2013-02-13 08:22:00,
2013-02-13 02:27:00,25.5,10.4,29.59,SSW,205,3.6,3.6,52,0.00,,,0.00,VWS V14.01,2013-02-13 08:27:00,
2013-02-13 02:32:00,25.5,10.4,29.59,SSW,209,2.7,4.0,52,0.00,,,0.00,VWS V14.01,2013-02-13 08:32:00,
2013-02-13 02:37:00,25.3,10.2,29.59,SW,219,5.8,5.8,52,0.00,,,0.00,VWS V14.01,2013-02-13 08:37:00,
2013-02-13 02:42:00,25.3,10.2,29.59,West,263,5.8,5.8,52,0.00,,,0.00,VWS V14.01,2013-02-13 08:42:00,
2013-02-13 02:47:00,25.3,10.2,29.59,WSW,237,4.0,6.3,52,0.00,,,0.00,VWS V14.01,2013-02-13 08:47:00,
2013-02-13 02:52:00,25.3,10.2,29.59,SW,229,5.4,5.4,52,0.00,,,0.00,VWS V14.01,2013-02-13 08:52:00,
2013-02-13 02:57:00,25.2,10.0,29.59,SSW,211,3.6,5.4,52,0.00,,,0.00,VWS V14.01,2013-02-13 08:57:00,
2013-02-13 03:02:00,25.2,10.0,29.59,SW,223,3.6,3.6,52,0.00,,,0.00,VWS V14.01,2013-02-13 09:02:00,
2013-02-13 03:07:00,25.2,10.0,29.59,SSW,205,4.0,4.0,52,0.00,,,0.00,VWS V14.01,2013-02-13 09:07:00,
2013-02-13 03:12:00,24.8,10.1,29.59,SSW,194,5.4,5.4,53,0.00,,,0.00,VWS V14.01,2013-02-13 09:12:00,
2013-02-13 03:17:00,24.8,10.1,29.59,SSW,205,3.6,3.6,53,0.00,,,0.00,VWS V14.01,2013-02-13 09:17:00,
2013-02-13 03:22:00,24.6,9.9,29.59,SSW,207,0.0,4.0,53,0.00,,,0.00,VWS V14.01,2013-02-13 09:22:00,
2013-02-13 03:27:00,24.6,9.9,29.59,SSW,208,5.4,5.4,53,0.00,,,0.00,VWS V14.01,2013-02-13 09:27:00,
2013-02-13 03:32:00,24.4,10.2,29.59,SSW,201,4.0,4.0,54,0.00,,,0.00,VWS V14.01,2013-02-13 09:32:00,
2013-02-13 03:37:00,24.3,10.0,29.59,South,189,3.1,5.4,54,0.00,,,0.00,VWS V14.01,2013-02-13 09:37:00,
2013-02-13 03:42:00,24.3,10.0,29.59,SSW,210,4.9,4.9,54,0.00,,,0.00,VWS V14.01,2013-02-13 09:42:00,
2013-02-13 03:47:00,24.3,10.0,29.59,SSW,199,2.7,2.7,54,0.00,,,0.00,VWS V14.01,2013-02-13 09:47:00,
2013-02-13 03:52:00,24.1,9.9,29.59,South,190,2.7,2.7,54,0.00,,,0.00,VWS V14.01,2013-02-13 09:52:00,
2013-02-13 03:57:00,23.9,9.7,29.59,South,186,5.4,5.4,54,0.00,,,0.00,VWS V14.01,2013-02-13 09:57:00,
2013-02-13 04:02:00,23.7,9.9,29.59,SSW,197,4.0,4.0,55,0.00,,,0.00,VWS V14.01,2013-02-13 10:02:00,
2013-02-13 04:07:00,23.7,9.9,29.59,SSW,193,3.1,3.1,55,0.00,,,0.00,VWS V14.01,2013-02-13 10:07:00,
2013-02-13 04:12:00,23.5,9.8,29.59,South,182,3.6,3.6,55,0.00,,,0.00,VWS V14.01,2013-02-13 10:12:00,
2013-02-13 04:17:00,23.5,9.8,29.59,SSW,211,5.4,5.4,55,0.00,,,0.00,VWS V14.01,2013-02-13 10:17:00,
2013-02-13 04:22:00,23.4,9.6,29.59,SSW,202,2.7,2.7,55,0.00,,,0.00,VWS V14.01,2013-02-13 10:22:00,
2013-02-13 04:27:00,23.4,10.0,29.59,SW,217,3.6,3.6,56,0.00,,,0.00,VWS V14.01,2013-02-13 10:27:00,
2013-02-13 04:32:00,23.2,9.8,29.59,SW,223,4.9,4.9,56,0.00,,,0.00,VWS V14.01,2013-02-13 10:32:00,
2013-02-13 04:37:00,23.2,9.8,29.59,SSW,208,3.6,3.6,56,0.00,,,0.00,VWS V14.01,2013-02-13 10:37:00,
2013-02-13 04:42:00,23.0,10.1,29.59,SSW,192,4.0,4.0,57,0.00,,,0.00,VWS V14.01,2013-02-13 10:42:00,
2013-02-13 04:47:00,23.0,10.1,29.59,SSW,200,2.7,2.7,57,0.00,,,0.00,VWS V14.01,2013-02-13 10:47:00,
2013-02-13 04:52:00,23.0,10.1,29.59,SSW,204,4.0,4.0,57,0.00,,,0.00,VWS V14.01,2013-02-13 10:52:00,
2013-02-13 04:57:00,22.8,10.3,29.59,SSW,209,5.8,5.8,58,0.00,,,0.00,VWS V14.01,2013-02-13 10:57:00,
2013-02-13 05:02:00,23.0,10.1,29.59,SW,227,4.0,4.0,57,0.00,,,0.00,VWS V14.01,2013-02-13 11:02:00,
2013-02-13 05:07:00,23.0,10.1,29.59,SW,214,5.8,5.8,57,0.00,,,0.00,VWS V14.01,2013-02-13 11:07:00,
2013-02-13 05:12:00,23.0,10.4,29.59,SW,214,5.8,5.8,58,0.00,,,0.00,VWS V14.01,2013-02-13 11:12:00,
2013-02-13 05:17:00,23.0,10.1,29.59,SW,219,4.9,4.9,57,0.00,,,0.00,VWS V14.01,2013-02-13 11:17:00,
2013-02-13 05:22:00,23.0,10.4,29.59,SSW,197,4.0,4.0,58,0.00,,,0.00,VWS V14.01,2013-02-13 11:22:00,
2013-02-13 05:27:00,23.0,10.4,29.59,SSW,203,6.3,6.3,58,0.00,,,0.00,VWS V14.01,2013-02-13 11:27:00,
2013-02-13 05:32:00,23.0,10.1,29.56,SSW,204,2.7,6.3,57,0.00,,,0.00,VWS V14.01,2013-02-13 11:32:00,
2013-02-13 05:37:00,23.0,10.1,29.56,SSW,208,3.1,3.1,57,0.00,,,0.00,VWS V14.01,2013-02-13 11:37:00,
2013-02-13 05:42:00,23.0,10.1,29.56,SSW,203,3.6,3.6,57,0.00,,,0.00,VWS V14.01,2013-02-13 11:42:00,
2013-02-13 05:47:00,22.8,9.9,29.56,SSW,195,2.7,4.0,57,0.00,,,0.00,VWS V14.01,2013-02-13 11:47:00,
2013-02-13 05:52:00,22.8,9.9,29.56,South,181,5.8,5.8,57,0.00,,,0.00,VWS V14.01,2013-02-13 11:52:00,
2013-02-13 05:58:00,22.8,10.3,29.56,South,181,5.8,5.8,58,0.00,,,0.00,VWS V14.01,2013-02-13 11:58:00,
2013-02-13 06:03:00,22.6,10.1,29.56,SSW,195,5.4,5.4,58,0.00,,,0.00,VWS V14.01,2013-02-13 12:03:00,
2013-02-13 06:08:00,22.6,10.1,29.56,SSW,206,3.6,3.6,58,0.00,,,0.00,VWS V14.01,2013-02-13 12:08:00,
2013-02-13 06:13:00,22.6,10.1,29.56,SSW,210,4.0,4.0,58,0.00,,,0.00,VWS V14.01,2013-02-13 12:13:00,
2013-02-13 06:18:00,22.5,9.9,29.56,SSW,210,4.0,4.0,58,0.00,,,0.00,VWS V14.01,2013-02-13 12:18:00,
2013-02-13 06:23:00,22.5,9.9,29.56,SW,217,2.7,2.7,58,0.00,,,0.00,VWS V14.01,2013-02-13 12:23:00,
2013-02-13 06:28:00,22.3,10.1,29.56,SSW,211,4.0,4.0,59,0.00,,,0.00,VWS V14.01,2013-02-13 12:28:00,
2013-02-13 06:33:00,22.3,10.1,29.56,SW,227,2.7,3.6,59,0.00,,,0.00,VWS V14.01,2013-02-13 12:33:00,
2013-02-13 06:38:00,22.3,10.1,29.56,SSW,198,4.0,4.0,59,0.00,,,0.00,VWS V14.01,2013-02-13 12:38:00,
2013-02-13 06:43:00,22.1,10.0,29.56,South,180,3.1,3.1,59,0.00,,,0.00,VWS V14.01,2013-02-13 12:43:00,
2013-02-13 06:48:00,21.9,9.8,29.56,SSW,192,3.1,3.1,59,0.00,,,0.00,VWS V14.01,2013-02-13 12:48:00,
2013-02-13 06:53:00,21.9,9.8,29.56,South,179,0.0,0.0,59,0.00,,,0.00,VWS V14.01,2013-02-13 12:53:00,
2013-02-13 06:58:00,21.7,9.6,29.56,South,172,3.1,3.1,59,0.00,,,0.00,VWS V14.01,2013-02-13 12:58:00,
2013-02-13 07:03:00,21.7,10.0,29.56,SSW,194,5.4,5.4,60,0.00,,,0.00,VWS V14.01,2013-02-13 13:03:00,
2013-02-13 07:08:00,21.4,9.7,29.56,SSW,204,0.0,2.7,60,0.00,,,0.00,VWS V14.01,2013-02-13 13:08:00,
2013-02-13 07:13:00,21.2,9.5,29.56,SSW,210,3.1,3.1,60,0.00,,,0.00,VWS V14.01,2013-02-13 13:13:00,
2013-02-13 07:18:00,21.2,9.5,29.56,SSW,197,3.1,3.1,60,0.00,,,0.00,VWS V14.01,2013-02-13 13:18:00,
2013-02-13 07:23:00,20.7,9.4,29.56,SSW,204,2.2,2.2,61,0.00,,,0.00,VWS V14.01,2013-02-13 13:23:00,
2013-02-13 07:28:00,20.7,9.4,29.56,SSW,204,2.2,3.1,61,0.00,,,0.00,VWS V14.01,2013-02-13 13:28:00,
2013-02-13 07:33:00,20.5,9.6,29.56,SSW,204,2.7,2.7,62,0.00,,,0.00,VWS V14.01,2013-02-13 13:33:00,
2013-02-13 07:38:00,20.5,9.9,29.56,SSW,204,2.7,2.7,63,0.00,,,0.00,VWS V14.01,2013-02-13 13:38:00,
2013-02-13 07:43:00,20.1,9.6,29.56,SSW,211,3.1,3.1,63,0.00,,,0.00,VWS V14.01,2013-02-13 13:43:00,
2013-02-13 07:48:00,20.1,9.9,29.56,SSW,195,2.7,2.7,64,0.00,,,0.00,VWS V14.01,2013-02-13 13:48:00,
2013-02-13 07:53:00,20.3,10.4,29.56,SW,214,0.0,0.0,65,0.00,,,0.00,VWS V14.01,2013-02-13 13:53:00,
2013-02-13 07:58:00,20.5,11.3,29.56,SSW,201,0.0,0.0,67,0.00,,,0.00,VWS V14.01,2013-02-13 13:58:00,
2013-02-13 08:03:00,20.7,11.4,29.56,SSW,198,4.9,4.9,67,0.00,,,0.00,VWS V14.01,2013-02-13 14:03:00,
2013-02-13 08:08:00,21.0,11.5,29.56,SSW,204,5.4,5.4,66,0.00,,,0.00,VWS V14.01,2013-02-13 14:08:00,
2013-02-13 08:13:00,21.2,10.9,29.56,SSW,200,2.2,2.2,64,0.00,,,0.00,VWS V14.01,2013-02-13 14:13:00,
2013-02-13 08:18:00,21.6,10.9,29.56,SSW,212,3.1,3.1,63,0.00,,,0.00,VWS V14.01,2013-02-13 14:18:00,
2013-02-13 08:23:00,21.9,10.9,29.56,SW,217,5.4,5.4,62,0.00,,,0.00,VWS V14.01,2013-02-13 14:23:00,
2013-02-13 08:28:00,22.1,10.4,29.56,SW,217,4.0,5.4,60,0.00,,,0.00,VWS V14.01,2013-02-13 14:28:00,
2013-02-13 08:33:00,22.6,10.5,29.56,SW,231,5.4,5.4,59,0.00,,,0.00,VWS V14.01,2013-02-13 14:33:00,
2013-02-13 08:38:00,23.0,10.4,29.56,SW,217,4.0,5.4,58,0.00,,,0.00,VWS V14.01,2013-02-13 14:38:00,
2013-02-13 08:43:00,23.5,10.6,29.56,SW,224,3.1,3.6,57,0.00,,,0.00,VWS V14.01,2013-02-13 14:43:00,
2013-02-13 08:49:00,23.7,10.3,29.56,SW,225,5.4,5.4,56,0.00,,,0.00,VWS V14.01,2013-02-13 14:49:00,
2013-02-13 08:54:00,24.3,10.4,29.56,SSW,207,3.6,3.6,55,0.00,,,0.00,VWS V14.01,2013-02-13 14:54:00,
2013-02-13 08:59:00,24.8,10.5,29.56,SSW,212,5.4,5.4,54,0.00,,,0.00,VWS V14.01,2013-02-13 14:59:00,
2013-02-13 09:04:00,25.0,10.3,29.56,West,259,6.3,6.3,53,0.00,,,0.00,VWS V14.01,2013-02-13 15:04:00,
2013-02-13 09:09:00,25.2,10.4,29.56,SW,229,6.3,6.3,53,0.00,,,0.00,VWS V14.01,2013-02-13 15:09:00,
2013-02-13 09:14:00,25.2,10.4,29.56,SW,221,8.1,8.1,53,0.00,,,0.00,VWS V14.01,2013-02-13 15:14:00,
2013-02-13 09:19:00,25.3,10.6,29.56,WSW,237,3.6,3.6,53,0.00,,,0.00,VWS V14.01,2013-02-13 15:19:00,
2013-02-13 09:24:00,25.9,10.7,29.56,SW,228,4.9,7.6,52,0.00,,,0.00,VWS V14.01,2013-02-13 15:24:00,
2013-02-13 09:29:00,26.1,10.9,29.56,SSW,200,6.7,6.7,52,0.00,,,0.00,VWS V14.01,2013-02-13 15:29:00,
2013-02-13 09:34:00,26.6,11.4,29.56,SW,235,6.3,6.3,52,0.00,,,0.00,VWS V14.01,2013-02-13 15:34:00,
2013-02-13 09:39:00,26.8,11.1,29.56,SW,232,6.3,6.3,51,0.00,,,0.00,VWS V14.01,2013-02-13 15:39:00,
2013-02-13 09:44:00,27.1,11.4,29.56,SSW,199,4.9,5.4,51,0.00,,,0.00,VWS V14.01,2013-02-13 15:44:00,
2013-02-13 09:49:00,27.0,11.3,29.56,SW,225,4.0,6.3,51,0.00,,,0.00,VWS V14.01,2013-02-13 15:49:00,
2013-02-13 09:54:00,27.0,11.3,29.56,SW,225,6.3,6.3,51,0.00,,,0.00,VWS V14.01,2013-02-13 15:54:00,
2013-02-13 09:59:00,27.1,11.4,29.56,SW,225,6.3,6.3,51,0.00,,,0.00,VWS V14.01,2013-02-13 15:59:00,
2013-02-13 10:04:00,27.7,11.9,29.53,WSW,241,4.0,4.0,51,0.00,,,0.00,VWS V14.01,2013-02-13 16:04:00,
2013-02-13 10:09:00,28.4,12.1,29.53,West,263,5.8,5.8,50,0.00,,,0.00,VWS V14.01,2013-02-13 16:09:00,
2013-02-13 10:14:00,28.4,11.7,29.53,WSW,251,5.8,5.8,49,0.00,,,0.00,VWS V14.01,2013-02-13 16:14:00,
2013-02-13 10:19:00,28.6,11.9,29.53,South,191,5.4,5.8,49,0.00,,,0.00,VWS V14.01,2013-02-13 16:19:00,
2013-02-13 10:24:00,29.1,11.9,29.53,SSW,208,5.4,5.4,48,0.00,,,0.00,VWS V14.01,2013-02-13 16:24:00,
2013-02-13 10:29:00,29.5,11.8,29.53,SW,221,5.8,5.8,47,0.00,,,0.00,VWS V14.01,2013-02-13 16:29:00,
2013-02-13 10:34:00,29.8,12.1,29.53,SW,234,4.9,4.9,47,0.00,,,0.00,VWS V14.01,2013-02-13 16:34:00,
2013-02-13 10:39:00,30.7,12.4,29.53,SW,220,6.3,6.3,46,0.00,,,0.00,VWS V14.01,2013-02-13 16:39:00,
2013-02-13 10:44:00,31.1,12.2,29.53,WNW,282,5.4,5.4,45,0.00,,,0.00,VWS V14.01,2013-02-13 16:44:00,
2013-02-13 10:49:00,31.1,12.2,29.53,WSW,241,3.1,3.1,45,0.00,,,0.00,VWS V14.01,2013-02-13 16:49:00,
2013-02-13 10:54:00,31.5,12.6,29.53,NW,313,3.1,5.4,45,0.00,,,0.00,VWS V14.01,2013-02-13 16:54:00,
2013-02-13 10:59:00,32.0,12.6,29.53,WSW,252,4.0,4.0,44,0.00,,,0.00,VWS V14.01,2013-02-13 16:59:00,
2013-02-13 11:04:00,32.4,12.9,29.53,SW,216,2.7,2.7,44,0.00,,,0.00,VWS V14.01,2013-02-13 17:04:00,
2013-02-13 11:09:00,32.2,12.7,29.53,SW,222,3.6,8.1,44,0.00,,,0.00,VWS V14.01,2013-02-13 17:09:00,
2013-02-13 11:14:00,32.4,12.9,29.53,WSW,241,2.7,4.9,44,0.00,,,0.00,VWS V14.01,2013-02-13 17:14:00,
2013-02-13 11:19:00,32.7,13.2,29.53,West,262,5.4,5.4,44,0.00,,,0.00,VWS V14.01,2013-02-13 17:19:00,
2013-02-13 11:24:00,33.4,13.9,29.53,WSW,238,5.8,5.8,44,0.00,,,0.00,VWS V14.01,2013-02-13 17:24:00,
2013-02-13 11:29:00,33.6,14.1,29.53,WSW,258,6.3,6.3,44,0.00,,,0.00,VWS V14.01,2013-02-13 17:29:00,
2013-02-13 11:34:00,33.8,13.7,29.53,WNW,299,4.0,4.0,43,0.00,,,0.00,VWS V14.01,2013-02-13 17:34:00,
2013-02-13 11:39:00,33.6,13.5,29.53,WNW,296,2.7,2.7,43,0.00,,,0.00,VWS V14.01,2013-02-13 17:39:00,
2013-02-13 11:44:00,33.3,13.2,29.53,WNW,293,3.1,3.1,43,0.00,,,0.00,VWS V14.01,2013-02-13 17:44:00,
2013-02-13 11:49:00,33.8,13.7,29.53,WSW,258,5.4,5.4,43,0.00,,,0.00,VWS V14.01,2013-02-13 17:49:00,
2013-02-13 11:54:00,34.5,14.3,29.53,NW,307,2.7,6.3,43,0.00,,,0.00,VWS V14.01,2013-02-13 17:54:00,
2013-02-13 11:59:00,34.5,13.8,29.53,WNW,288,2.7,4.0,42,0.00,,,0.00,VWS V14.01,2013-02-13 17:59:00,
2013-02-13 12:04:00,34.5,13.8,29.53,NW,325,2.2,3.6,42,0.00,,,0.00,VWS V14.01,2013-02-13 18:04:00,
2013-02-13 12:09:00,34.3,13.6,29.53,NW,325,2.2,2.2,42,0.00,,,0.00,VWS V14.01,2013-02-13 18:09:00,
2013-02-13 12:14:00,34.2,13.5,29.53,NW,318,4.0,4.0,42,0.00,,,0.00,VWS V14.01,2013-02-13 18:14:00,
2013-02-13 12:19:00,34.3,14.2,29.53,NW,314,3.1,3.1,43,0.00,,,0.00,VWS V14.01,2013-02-13 18:19:00,
2013-02-13 12:24:00,34.5,13.8,29.53,NW,309,2.7,2.7,42,0.00,,,0.00,VWS V14.01,2013-02-13 18:24:00,
2013-02-13 12:29:00,34.7,14.0,29.53,NW,319,3.1,3.6,42,0.00,,,0.00,VWS V14.01,2013-02-13 18:29:00,
2013-02-13 12:34:00,34.9,14.1,29.53,WNW,286,2.7,2.7,42,0.00,,,0.00,VWS V14.01,2013-02-13 18:34:00,
2013-02-13 12:39:00,35.1,14.3,29.50,NW,313,2.7,2.7,42,0.00,,,0.00,VWS V14.01,2013-02-13 18:39:00,
2013-02-13 12:44:00,35.1,14.3,29.50,NW,313,2.7,2.7,42,0.00,,,0.00,VWS V14.01,2013-02-13 18:44:00,
2013-02-13 12:49:00,35.1,14.3,29.50,NW,318,3.6,3.6,42,0.00,,,0.00,VWS V14.01,2013-02-13 18:49:00,
2013-02-13 12:54:00,35.2,14.5,29.50,NW,308,0.0,0.0,42,0.00,,,0.00,VWS V14.01,2013-02-13 18:54:00,
2013-02-13 12:59:00,35.6,14.8,29.50,NW,310,3.1,3.1,42,0.00,,,0.00,VWS V14.01,2013-02-13 18:59:00,
2013-02-13 13:04:00,36.0,15.1,29.50,NNW,328,6.7,6.7,42,0.00,,,0.00,VWS V14.01,2013-02-13 19:04:00,
2013-02-13 13:09:00,36.1,15.3,29.50,WNW,300,4.0,4.0,42,0.00,,,0.00,VWS V14.01,2013-02-13 19:09:00,
2013-02-13 13:14:00,36.1,15.3,29.50,West,280,3.6,3.6,42,0.00,,,0.00,VWS V14.01,2013-02-13 19:14:00,
2013-02-13 13:19:00,36.3,14.9,29.50,NW,311,3.6,3.6,41,0.00,,,0.00,VWS V14.01,2013-02-13 19:19:00,
2013-02-13 13:24:00,36.3,14.9,29.50,West,278,3.6,3.6,41,0.00,,,0.00,VWS V14.01,2013-02-13 19:24:00,
2013-02-13 13:29:00,36.3,14.9,29.50,WNW,301,3.1,3.1,41,0.00,,,0.00,VWS V14.01,2013-02-13 19:29:00,
2013-02-13 13:34:00,36.5,15.6,29.50,West,279,5.8,5.8,42,0.00,,,0.00,VWS V14.01,2013-02-13 19:34:00,
2013-02-13 13:39:00,37.0,15.5,29.50,West,260,3.6,3.6,41,0.00,,,0.00,VWS V14.01,2013-02-13 19:39:00,
2013-02-13 13:44:00,37.4,15.9,29.50,West,269,3.6,3.6,41,0.00,,,0.00,VWS V14.01,2013-02-13 19:44:00,
2013-02-13 13:49:00,37.6,16.0,29.50,WNW,290,6.3,6.3,41,0.00,,,0.00,VWS V14.01,2013-02-13 19:49:00,
2013-02-13 13:54:00,37.6,15.5,29.50,West,273,5.4,5.4,40,0.00,,,0.00,VWS V14.01,2013-02-13 19:54:00,
2013-02-13 13:59:00,37.2,15.7,29.50,West,279,5.8,5.8,41,0.00,,,0.00,VWS V14.01,2013-02-13 19:59:00,
2013-02-13 14:04:00,37.2,15.7,29.50,West,271,6.3,8.7,41,0.00,,,0.00,VWS V14.01,2013-02-13 20:04:00,
2013-02-13 14:09:00,37.4,15.3,29.50,WSW,258,6.3,6.3,40,0.00,,,0.00,VWS V14.01,2013-02-13 20:09:00,
2013-02-13 14:14:00,37.2,15.7,29.50,WSW,242,4.0,4.0,41,0.00,,,0.00,VWS V14.01,2013-02-13 20:14:00,
2013-02-13 14:19:00,37.2,15.7,29.50,West,276,4.0,4.0,41,0.00,,,0.00,VWS V14.01,2013-02-13 20:19:00,
2013-02-13 14:24:00,37.2,15.7,29.50,WSW,238,4.0,4.0,41,0.00,,,0.00,VWS V14.01,2013-02-13 20:24:00,
2013-02-13 14:29:00,37.4,15.3,29.50,WNW,285,5.4,5.4,40,0.00,,,0.00,VWS V14.01,2013-02-13 20:29:00,
2013-02-13 14:34:00,37.4,15.3,29.50,WSW,257,2.7,5.4,40,0.00,,,0.00,VWS V14.01,2013-02-13 20:34:00,
2013-02-13 14:39:00,37.4,15.3,29.50,WSW,246,5.8,5.8,40,0.00,,,0.00,VWS V14.01,2013-02-13 20:39:00,
2013-02-13 14:44:00,37.2,15.1,29.50,West,264,3.1,3.1,40,0.00,,,0.00,VWS V14.01,2013-02-13 20:44:00,
2013-02-13 14:49:00,37.2,15.7,29.50,West,269,3.1,3.1,41,0.00,,,0.00,VWS V14.01,2013-02-13 20:49:00,
2013-02-13 14:54:00,37.4,15.3,29.50,WNW,285,2.7,2.7,40,0.00,,,0.00,VWS V14.01,2013-02-13 20:54:00,
2013-02-13 14:59:00,37.0,15.5,29.50,West,272,4.0,4.0,41,0.00,,,0.00,VWS V14.01,2013-02-13 20:59:00,
2013-02-13 15:04:00,37.0,15.5,29.50,West,266,3.1,3.1,41,0.00,,,0.00,VWS V14.01,2013-02-13 21:04:00,
2013-02-13 15:09:00,37.0,15.5,29.50,West,262,0.0,0.0,41,0.00,,,0.00,VWS V14.01,2013-02-13 21:09:00,
2013-02-13 15:14:00,37.0,15.5,29.50,NW,322,2.7,2.7,41,0.00,,,0.00,VWS V14.01,2013-02-13 21:14:00,
2013-02-13 15:19:00,37.0,15.5,29.50,WSW,247,2.7,2.7,41,0.00,,,0.00,VWS V14.01,2013-02-13 21:19:00,
2013-02-13 15:24:00,37.0,15.5,29.50,West,276,3.6,3.6,41,0.00,,,0.00,VWS V14.01,2013-02-13 21:24:00,
2013-02-13 15:29:00,37.0,15.5,29.50,WSW,251,4.5,4.5,41,0.00,,,0.00,VWS V14.01,2013-02-13 21:29:00,
2013-02-13 15:34:00,37.4,15.3,29.50,NW,319,4.9,4.9,40,0.00,,,0.00,VWS V14.01,2013-02-13 21:34:00,
2013-02-13 15:39:00,37.8,15.6,29.50,NW,306,2.7,2.7,40,0.00,,,0.00,VWS V14.01,2013-02-13 21:39:00,
2013-02-13 15:44:00,37.8,15.6,29.50,WNW,289,3.1,3.1,40,0.00,,,0.00,VWS V14.01,2013-02-13 21:44:00,
2013-02-13 15:49:00,37.4,15.3,29.50,WNW,289,3.1,3.1,40,0.00,,,0.00,VWS V14.01,2013-02-13 21:49:00,
2013-02-13 15:54:00,37.0,15.5,29.50,West,279,2.2,2.2,41,0.00,,,0.00,VWS V14.01,2013-02-13 21:54:00,
2013-02-13 15:59:00,36.9,15.4,29.50,NNW,327,2.2,2.2,41,0.00,,,0.00,VWS V14.01,2013-02-13 21:59:00,
2013-02-13 16:04:00,36.7,15.2,29.50,NNW,327,0.0,0.0,41,0.00,,,0.00,VWS V14.01,2013-02-13 22:04:00,
2013-02-13 16:09:00,36.3,14.9,29.50,NW,315,0.0,3.1,41,0.00,,,0.00,VWS V14.01,2013-02-13 22:09:00,
2013-02-13 16:14:00,36.3,14.9,29.50,NW,315,0.0,0.0,41,0.00,,,0.00,VWS V14.01,2013-02-13 22:14:00,
2013-02-13 16:19:00,36.1,14.7,29.50,NW,315,0.0,0.0,41,0.00,,,0.00,VWS V14.01,2013-02-13 22:19:00,
2013-02-13 16:24:00,35.8,14.4,29.50,NW,315,0.0,0.0,41,0.00,,,0.00,VWS V14.01,2013-02-13 22:24:00,
2013-02-13 16:29:00,35.8,14.4,29.50,NW,315,0.0,0.0,41,0.00,,,0.00,VWS V14.01,2013-02-13 22:29:00,
2013-02-13 16:34:00,35.6,14.2,29.50,NW,315,0.0,0.0,41,0.00,,,0.00,VWS V14.01,2013-02-13 22:34:00,
2013-02-13 16:39:00,35.4,14.6,29.50,NW,315,0.0,0.0,42,0.00,,,0.00,VWS V14.01,2013-02-13 22:39:00,
2013-02-13 16:44:00,35.4,14.6,29.50,NW,315,0.0,0.0,42,0.00,,,0.00,VWS V14.01,2013-02-13 22:44:00,
2013-02-13 16:49:00,35.4,14.6,29.50,NW,315,0.0,0.0,42,0.00,,,0.00,VWS V14.01,2013-02-13 22:49:00,
2013-02-13 16:54:00,35.2,14.5,29.50,NW,315,0.0,0.0,42,0.00,,,0.00,VWS V14.01,2013-02-13 22:54:00,
2013-02-13 16:59:00,35.2,14.5,29.50,NW,315,0.0,0.0,42,0.00,,,0.00,VWS V14.01,2013-02-13 22:59:00,
2013-02-13 17:04:00,35.2,14.5,29.50,NW,315,0.0,0.0,42,0.00,,,0.00,VWS V14.01,2013-02-13 23:04:00,
2013-02-13 17:09:00,34.9,14.1,29.50,NW,315,0.0,0.0,42,0.00,,,0.00,VWS V14.01,2013-02-13 23:09:00,
2013-02-13 17:14:00,34.7,14.0,29.50,NW,315,0.0,0.0,42,0.00,,,0.00,VWS V14.01,2013-02-13 23:14:00,
2013-02-13 17:19:00,34.5,13.8,29.50,NW,315,0.0,0.0,42,0.00,,,0.00,VWS V14.01,2013-02-13 23:19:00,
2013-02-13 17:24:00,34.2,13.5,29.50,NW,315,0.0,0.0,42,0.00,,,0.00,VWS V14.01,2013-02-13 23:24:00,
2013-02-13 17:29:00,34.0,13.3,29.50,NW,315,0.0,0.0,42,0.00,,,0.00,VWS V14.01,2013-02-13 23:29:00,
2013-02-13 17:34:00,33.4,14.4,29.50,North,353,6.3,6.3,45,0.00,,,0.00,VWS V14.01,2013-02-13 23:34:00,
2013-02-13 17:39:00,33.3,14.2,29.50,NNE,33,5.4,8.1,45,0.00,,,0.00,VWS V14.01,2013-02-13 23:39:00,
2013-02-13 17:44:00,32.5,14.1,29.50,NE,48,6.3,6.3,46,0.00,,,0.00,VWS V14.01,2013-02-13 23:44:00,
2013-02-13 17:49:00,32.0,13.6,29.50,NNE,33,4.9,4.9,46,0.00,,,0.00,VWS V14.01,2013-02-13 23:49:00,
2013-02-13 17:54:00,32.0,13.6,29.50,NE,43,4.0,4.0,46,0.00,,,0.00,VWS V14.01,2013-02-13 23:54:00,
2013-02-13 17:59:00,31.6,13.7,29.53,North,357,5.8,5.8,47,0.00,,,0.00,VWS V14.01,2013-02-13 23:59:00,
2013-02-13 18:04:00,31.5,14.1,29.53,NNE,29,8.7,8.7,48,0.00,,,0.00,VWS V14.01,2013-02-14 00:04:00,
2013-02-13 18:10:00,31.3,14.8,29.53,NNE,29,8.7,8.7,50,0.00,,,0.00,VWS V14.01,2013-02-14 00:10:00,
2013-02-13 18:15:00,31.1,14.6,29.53,ENE,59,4.9,4.9,50,0.00,,,0.00,VWS V14.01,2013-02-14 00:15:00,
2013-02-13 18:20:00,31.1,15.1,29.53,ENE,59,5.4,5.4,51,0.00,,,0.00,VWS V14.01,2013-02-14 00:20:00,
2013-02-13 18:25:00,30.9,14.9,29.53,NE,37,4.0,4.0,51,0.00,,,0.00,VWS V14.01,2013-02-14 00:25:00,
2013-02-13 18:30:00,30.9,14.9,29.50,ENE,60,4.0,4.0,51,0.00,,,0.00,VWS V14.01,2013-02-14 00:30:00,
2013-02-13 18:35:00,30.7,14.8,29.50,NE,46,5.4,5.4,51,0.00,,,0.00,VWS V14.01,2013-02-14 00:35:00,
2013-02-13 18:40:00,30.6,15.0,29.50,NE,34,3.1,5.8,52,0.00,,,0.00,VWS V14.01,2013-02-14 00:40:00,
2013-02-13 18:45:00,30.4,14.9,29.53,ENE,74,3.1,3.1,52,0.00,,,0.00,VWS V14.01,2013-02-14 00:45:00,
2013-02-13 18:50:00,30.2,14.7,29.53,NE,53,2.7,2.7,52,0.00,,,0.00,VWS V14.01,2013-02-14 00:50:00,
2013-02-13 18:55:00,30.2,14.7,29.53,NE,54,3.6,3.6,52,0.00,,,0.00,VWS V14.01,2013-02-14 00:55:00,
2013-02-13 19:00:00,30.2,15.1,29.53,NE,50,0.0,4.0,53,0.00,,,0.00,VWS V14.01,2013-02-14 01:00:00,
2013-02-13 19:05:00,30.0,15.0,29.53,NE,47,4.0,4.0,53,0.00,,,0.00,VWS V14.01,2013-02-14 01:05:00,
2013-02-13 19:10:00,30.0,15.0,29.53,NE,45,2.7,2.7,53,0.00,,,0.00,VWS V14.01,2013-02-14 01:10:00,
2013-02-13 19:15:00,30.0,15.0,29.53,NE,43,3.6,3.6,53,0.00,,,0.00,VWS V14.01,2013-02-14 01:15:00,
2013-02-13 19:20:00,29.8,15.2,29.53,NE,39,3.1,3.1,54,0.00,,,0.00,VWS V14.01,2013-02-14 01:20:00,
2013-02-13 19:25:00,29.8,15.2,29.53,NE,42,3.6,5.4,54,0.00,,,0.00,VWS V14.01,2013-02-14 01:25:00,
2013-02-13 19:30:00,29.8,15.7,29.53,ENE,65,2.7,5.4,55,0.00,,,0.00,VWS V14.01,2013-02-14 01:30:00,
2013-02-13 19:35:00,29.8,15.7,29.53,NE,36,5.4,5.4,55,0.00,,,0.00,VWS V14.01,2013-02-14 01:35:00,
2013-02-13 19:40:00,29.8,15.7,29.53,East,81,2.7,2.7,55,0.00,,,0.00,VWS V14.01,2013-02-14 01:40:00,
2013-02-13 19:45:00,29.8,16.1,29.53,NE,42,3.6,3.6,56,0.00,,,0.00,VWS V14.01,2013-02-14 01:45:00,
2013-02-13 19:50:00,29.7,15.9,29.53,ENE,58,3.6,4.0,56,0.00,,,0.00,VWS V14.01,2013-02-14 01:50:00,
2013-02-13 19:55:00,29.7,15.9,29.53,ENE,64,3.1,3.1,56,0.00,,,0.00,VWS V14.01,2013-02-14 01:55:00,
2013-02-13 20:00:00,29.7,15.9,29.53,ENE,69,0.0,0.0,56,0.00,,,0.00,VWS V14.01,2013-02-14 02:00:00,
2013-02-13 20:05:00,29.7,15.9,29.53,NE,56,2.7,2.7,56,0.00,,,0.00,VWS V14.01,2013-02-14 02:05:00,
2013-02-13 20:10:00,29.5,15.7,29.53,NNE,28,4.0,4.0,56,0.00,,,0.00,VWS V14.01,2013-02-14 02:10:00,
2013-02-13 20:15:00,29.5,15.7,29.53,ENE,70,0.0,0.0,56,0.00,,,0.00,VWS V14.01,2013-02-14 02:15:00,
2013-02-13 20:20:00,29.5,15.7,29.53,ENE,67,0.0,0.0,56,0.00,,,0.00,VWS V14.01,2013-02-14 02:20:00,
2013-02-13 20:25:00,29.5,15.7,29.53,ENE,67,0.0,0.0,56,0.00,,,0.00,VWS V14.01,2013-02-14 02:25:00,
2013-02-13 20:30:00,29.5,15.7,29.53,ENE,65,0.0,0.0,56,0.00,,,0.00,VWS V14.01,2013-02-14 02:30:00,
2013-02-13 20:35:00,29.3,15.6,29.53,ENE,71,2.7,2.7,56,0.00,,,0.00,VWS V14.01,2013-02-14 02:35:00,
2013-02-13 20:40:00,29.5,16.1,29.53,NE,50,3.1,3.1,57,0.00,,,0.00,VWS V14.01,2013-02-14 02:40:00,
2013-02-13 20:45:00,29.3,16.0,29.53,NE,35,2.2,2.2,57,0.00,,,0.00,VWS V14.01,2013-02-14 02:45:00,
2013-02-13 20:50:00,29.3,16.0,29.53,NE,42,2.2,2.2,57,0.00,,,0.00,VWS V14.01,2013-02-14 02:50:00,
2013-02-13 20:55:00,29.3,16.0,29.53,ENE,68,3.6,3.6,57,0.00,,,0.00,VWS V14.01,2013-02-14 02:55:00,
2013-02-13 21:00:00,29.3,16.0,29.53,NNE,25,3.6,3.6,57,0.00,,,0.00,VWS V14.01,2013-02-14 03:00:00,
2013-02-13 21:05:00,29.3,16.0,29.53,NNE,15,4.0,4.0,57,0.00,,,0.00,VWS V14.01,2013-02-14 03:05:00,
2013-02-13 21:10:00,29.1,15.8,29.53,NE,40,4.0,4.0,57,0.00,,,0.00,VWS V14.01,2013-02-14 03:10:00,
2013-02-13 21:15:00,29.1,16.2,29.53,NE,43,4.0,4.0,58,0.00,,,0.00,VWS V14.01,2013-02-14 03:15:00,
2013-02-13 21:20:00,29.1,16.2,29.53,NE,41,3.1,3.1,58,0.00,,,0.00,VWS V14.01,2013-02-14 03:20:00,
2013-02-13 21:25:00,29.1,16.2,29.53,NNE,32,3.6,3.6,58,0.00,,,0.00,VWS V14.01,2013-02-14 03:25:00,
2013-02-13 21:30:00,29.1,16.2,29.53,NNE,18,3.1,3.1,58,0.00,,,0.00,VWS V14.01,2013-02-14 03:30:00,
2013-02-13 21:35:00,28.9,16.0,29.53,NNE,18,3.1,3.1,58,0.00,,,0.00,VWS V14.01,2013-02-14 03:35:00,
2013-02-13 21:40:00,28.9,16.0,29.53,NE,50,2.2,2.2,58,0.00,,,0.00,VWS V14.01,2013-02-14 03:40:00,
2013-02-13 21:45:00,28.8,15.9,29.53,NE,44,0.0,0.0,58,0.00,,,0.00,VWS V14.01,2013-02-14 03:45:00,
2013-02-13 21:50:00,28.8,15.9,29.53,East,81,0.0,0.0,58,0.00,,,0.00,VWS V14.01,2013-02-14 03:50:00,
2013-02-13 21:55:00,28.8,15.9,29.53,NE,42,0.0,0.0,58,0.00,,,0.00,VWS V14.01,2013-02-14 03:55:00,
2013-02-13 22:00:00,28.6,15.7,29.53,NE,49,0.0,0.0,58,0.00,,,0.00,VWS V14.01,2013-02-14 04:00:00,
2013-02-13 22:05:00,28.6,15.7,29.53,ENE,67,0.0,0.0,58,0.00,,,0.00,VWS V14.01,2013-02-14 04:05:00,
2013-02-13 22:10:00,28.6,15.7,29.53,ENE,71,0.0,0.0,58,0.00,,,0.00,VWS V14.01,2013-02-14 04:10:00,
2013-02-13 22:15:00,28.6,15.7,29.53,ENE,58,0.0,0.0,58,0.00,,,0.00,VWS V14.01,2013-02-14 04:15:00,
2013-02-13 22:20:00,28.6,15.7,29.53,ENE,71,0.0,0.0,58,0.00,,,0.00,VWS V14.01,2013-02-14 04:20:00,
2013-02-13 22:25:00,28.6,16.1,29.53,NE,47,2.7,2.7,59,0.00,,,0.00,VWS V14.01,2013-02-14 04:25:00,
2013-02-13 22:30:00,28.6,16.1,29.53,NE,38,0.0,0.0,59,0.00,,,0.00,VWS V14.01,2013-02-14 04:30:00,
2013-02-13 22:35:00,28.6,16.1,29.53,NE,42,0.0,0.0,59,0.00,,,0.00,VWS V14.01,2013-02-14 04:35:00,
2013-02-13 22:40:00,28.6,16.1,29.53,NE,51,2.7,2.7,59,0.00,,,0.00,VWS V14.01,2013-02-14 04:40:00,
2013-02-13 22:45:00,28.6,16.1,29.53,East,79,2.7,2.7,59,0.00,,,0.00,VWS V14.01,2013-02-14 04:45:00,
2013-02-13 22:50:00,28.6,16.1,29.53,ENE,60,4.0,4.0,59,0.00,,,0.00,VWS V14.01,2013-02-14 04:50:00,
2013-02-13 22:55:00,28.4,15.9,29.53,ENE,72,0.0,0.0,59,0.00,,,0.00,VWS V14.01,2013-02-14 04:55:00,
2013-02-13 23:00:00,28.4,15.9,29.53,ENE,57,0.0,0.0,59,0.00,,,0.00,VWS V14.01,2013-02-14 05:00:00,
2013-02-13 23:05:00,28.4,15.9,29.53,NE,47,0.0,0.0,59,0.00,,,0.00,VWS V14.01,2013-02-14 05:05:00,
2013-02-13 23:10:00,28.4,15.9,29.53,NE,47,0.0,0.0,59,0.00,,,0.00,VWS V14.01,2013-02-14 05:10:00,
2013-02-13 23:15:00,28.2,15.8,29.53,NE,47,0.0,0.0,59,0.00,,,0.00,VWS V14.01,2013-02-14 05:15:00,
2013-02-13 23:20:00,28.2,15.8,29.53,NE,47,3.1,3.1,59,0.00,,,0.00,VWS V14.01,2013-02-14 05:20:00,
2013-02-13 23:25:00,28.2,15.8,29.53,NE,47,0.0,0.0,59,0.00,,,0.00,VWS V14.01,2013-02-14 05:25:00,
2013-02-13 23:30:00,28.2,15.8,29.53,NE,47,0.0,0.0,59,0.00,,,0.00,VWS V14.01,2013-02-14 05:30:00,
2013-02-13 23:35:00,28.0,15.6,29.53,NE,37,3.1,3.1,59,0.00,,,0.00,VWS V14.01,2013-02-14 05:35:00,
2013-02-13 23:40:00,28.0,15.6,29.53,NE,38,0.0,0.0,59,0.00,,,0.00,VWS V14.01,2013-02-14 05:40:00,
2013-02-13 23:45:00,28.0,15.6,29.53,NE,38,0.0,0.0,59,0.00,,,0.00,VWS V14.01,2013-02-14 05:45:00,
2013-02-13 23:50:00,28.0,15.6,29.56,NE,35,0.0,0.0,59,0.00,,,0.00,VWS V14.01,2013-02-14 05:50:00,
2013-02-13 23:55:00,27.9,15.4,29.56,NE,35,0.0,0.0,59,0.00,,,0.00,VWS V14.01,2013-02-14 05:55:00,